Lewisville's Hourly Summary for Tuesday, May 15, 2018
Hour Temp
(f)
RH
(%)
Solar Rad.
(MJ/m2)
Rainfall
(in)
Wind
(mph)
5/15/2018 12:00 AM 79 65 0 0 5.76
5/15/2018 1:00 AM 78 66 0 0 6.42
5/15/2018 2:00 AM 77 68 0 0 4.8
5/15/2018 3:00 AM 76 70 0 0 3.14
5/15/2018 4:00 AM 76 70 0 0 4.8
5/15/2018 5:00 AM 76 71 0 0 3.84
5/15/2018 6:00 AM 75 73 0.02 0 3.5
5/15/2018 7:00 AM 75 75 0.13 0 3.41
5/15/2018 8:00 AM 75 75 0.21 0 2.95
5/15/2018 9:00 AM 74 77 0.46 0 4.61
5/15/2018 10:00 AM 75 69 1.3 0 7.49
5/15/2018 11:00 AM 76 72 1.16 0 8.21
5/15/2018 12:00 PM 79 60 2.75 0 7.25
5/15/2018 1:00 PM 82 55 2.92 0 7.29
5/15/2018 2:00 PM 84 50 3.02 0 6.15
5/15/2018 3:00 PM 86 42 2.63 0 5.8
5/15/2018 4:00 PM 86 42 1.37 0 5.83
5/15/2018 5:00 PM 85 43 0.48 0 3.79
5/15/2018 6:00 PM 78 54 0.17 0 5.25
5/15/2018 7:00 PM 77 58 0.18 0 6.27
5/15/2018 8:00 PM 76 59 0.01 0 5.48
5/15/2018 9:00 PM 74 65 0 0 1.61
5/15/2018 10:00 PM 73 68 0 0 0.87
5/15/2018 11:00 PM 71 72 0 0 0.09
Data Summary 77 63 16.81 0.00 4.78